sensor_id;sensor_type;location;lat;lon;timestamp;pressure;altitude;pressure_sealevel;temperature
80537;BMP280;69867;47.074;15.404;2024-01-25T00:00:56;97867.81;;;12.38
80537;BMP280;69867;47.074;15.404;2024-01-25T00:03:22;97848.75;;;12.36
80537;BMP280;69867;47.074;15.404;2024-01-25T00:05:47;97847.84;;;12.37
80537;BMP280;69867;47.074;15.404;2024-01-25T00:08:12;97858.00;;;12.48
80537;BMP280;69867;47.074;15.404;2024-01-25T00:10:38;97877.25;;;12.42
80537;BMP280;69867;47.074;15.404;2024-01-25T00:13:03;97871.97;;;12.45
80537;BMP280;69867;47.074;15.404;2024-01-25T00:15:29;97854.78;;;12.38
80537;BMP280;69867;47.074;15.404;2024-01-25T00:17:54;97859.34;;;12.63
80537;BMP280;69867;47.074;15.404;2024-01-25T00:20:19;97857.66;;;12.60
80537;BMP280;69867;47.074;15.404;2024-01-25T00:22:45;97850.78;;;12.58
80537;BMP280;69867;47.074;15.404;2024-01-25T00:25:10;97835.22;;;12.55
80537;BMP280;69867;47.074;15.404;2024-01-25T00:27:35;97850.38;;;12.40
80537;BMP280;69867;47.074;15.404;2024-01-25T00:30:00;97851.34;;;12.36
80537;BMP280;69867;47.074;15.404;2024-01-25T00:32:26;97847.66;;;12.45
80537;BMP280;69867;47.074;15.404;2024-01-25T00:34:51;97857.44;;;12.37
80537;BMP280;69867;47.074;15.404;2024-01-25T00:37:17;97850.75;;;12.27
80537;BMP280;69867;47.074;15.404;2024-01-25T00:39:43;97844.56;;;12.31
80537;BMP280;69867;47.074;15.404;2024-01-25T00:42:12;97849.81;;;12.29
80537;BMP280;69867;47.074;15.404;2024-01-25T00:44:37;97851.94;;;12.13
80537;BMP280;69867;47.074;15.404;2024-01-25T00:47:03;97844.78;;;12.22
80537;BMP280;69867;47.074;15.404;2024-01-25T00:49:29;97878.31;;;12.35
80537;BMP280;69867;47.074;15.404;2024-01-25T00:51:59;97860.22;;;12.29
80537;BMP280;69867;47.074;15.404;2024-01-25T00:54:24;97867.31;;;12.24
80537;BMP280;69867;47.074;15.404;2024-01-25T00:56:50;97873.56;;;12.17
80537;BMP280;69867;47.074;15.404;2024-01-25T00:59:16;97880.56;;;12.15
80537;BMP280;69867;47.074;15.404;2024-01-25T01:01:42;97891.41;;;12.32
80537;BMP280;69867;47.074;15.404;2024-01-25T01:04:09;97888.31;;;12.18
80537;BMP280;69867;47.074;15.404;2024-01-25T01:06:34;97876.31;;;12.11
80537;BMP280;69867;47.074;15.404;2024-01-25T01:09:00;97877.66;;;11.92
80537;BMP280;69867;47.074;15.404;2024-01-25T01:11:25;97870.75;;;11.91
80537;BMP280;69867;47.074;15.404;2024-01-25T01:13:50;97868.69;;;12.37
80537;BMP280;69867;47.074;15.404;2024-01-25T01:16:16;97858.75;;;12.19
80537;BMP280;69867;47.074;15.404;2024-01-25T01:18:41;97871.31;;;12.03
80537;BMP280;69867;47.074;15.404;2024-01-25T01:21:06;97868.81;;;11.99
80537;BMP280;69867;47.074;15.404;2024-01-25T01:23:32;97869.56;;;12.38
80537;BMP280;69867;47.074;15.404;2024-01-25T01:25:57;97885.97;;;12.41
80537;BMP280;69867;47.074;15.404;2024-01-25T01:28:22;97858.97;;;12.44
80537;BMP280;69867;47.074;15.404;2024-01-25T01:30:48;97871.09;;;12.45
80537;BMP280;69867;47.074;15.404;2024-01-25T01:33:13;97853.22;;;12.31
80537;BMP280;69867;47.074;15.404;2024-01-25T01:35:38;97837.75;;;12.25
80537;BMP280;69867;47.074;15.404;2024-01-25T01:38:04;97836.56;;;12.37
80537;BMP280;69867;47.074;15.404;2024-01-25T01:40:29;97833.84;;;12.41
80537;BMP280;69867;47.074;15.404;2024-01-25T01:43:01;97851.75;;;12.54
80537;BMP280;69867;47.074;15.404;2024-01-25T01:45:27;97839.75;;;12.48
80537;BMP280;69867;47.074;15.404;2024-01-25T01:47:56;97843.56;;;12.35
80537;BMP280;69867;47.074;15.404;2024-01-25T01:50:22;97833.22;;;12.32
80537;BMP280;69867;47.074;15.404;2024-01-25T01:52:49;97844.75;;;12.23
80537;BMP280;69867;47.074;15.404;2024-01-25T01:55:16;97845.00;;;12.14
80537;BMP280;69867;47.074;15.404;2024-01-25T01:57:41;97830.31;;;12.10
80537;BMP280;69867;47.074;15.404;2024-01-25T02:00:08;97824.53;;;11.99
80537;BMP280;69867;47.074;15.404;2024-01-25T02:02:34;97823.41;;;12.09
80537;BMP280;69867;47.074;15.404;2024-01-25T02:04:59;97818.13;;;12.12
80537;BMP280;69867;47.074;15.404;2024-01-25T02:07:25;97836.44;;;12.09
80537;BMP280;69867;47.074;15.404;2024-01-25T02:09:51;97826.25;;;12.00
80537;BMP280;69867;47.074;15.404;2024-01-25T02:12:16;97829.75;;;11.99
80537;BMP280;69867;47.074;15.404;2024-01-25T02:14:41;97821.34;;;12.22
80537;BMP280;69867;47.074;15.404;2024-01-25T02:17:07;97838.63;;;11.90
80537;BMP280;69867;47.074;15.404;2024-01-25T02:19:32;97854.00;;;12.01
80537;BMP280;69867;47.074;15.404;2024-01-25T02:21:58;97852.06;;;12.09
80537;BMP280;69867;47.074;15.404;2024-01-25T02:24:24;97847.97;;;12.33
80537;BMP280;69867;47.074;15.404;2024-01-25T02:26:49;97830.66;;;12.30
80537;BMP280;69867;47.074;15.404;2024-01-25T02:29:14;97835.19;;;12.24
80537;BMP280;69867;47.074;15.404;2024-01-25T02:31:40;97848.91;;;12.30
80537;BMP280;69867;47.074;15.404;2024-01-25T02:34:05;97844.09;;;12.47
80537;BMP280;69867;47.074;15.404;2024-01-25T02:36:30;97845.25;;;12.37
80537;BMP280;69867;47.074;15.404;2024-01-25T02:38:56;97831.72;;;12.23
80537;BMP280;69867;47.074;15.404;2024-01-25T02:41:21;97851.56;;;12.29
80537;BMP280;69867;47.074;15.404;2024-01-25T02:43:46;97865.13;;;12.41
80537;BMP280;69867;47.074;15.404;2024-01-25T02:46:12;97852.00;;;12.44
80537;BMP280;69867;47.074;15.404;2024-01-25T02:48:37;97846.16;;;12.36
80537;BMP280;69867;47.074;15.404;2024-01-25T02:51:03;97836.94;;;12.56
80537;BMP280;69867;47.074;15.404;2024-01-25T02:53:28;97833.88;;;12.40
80537;BMP280;69867;47.074;15.404;2024-01-25T02:55:53;97872.53;;;12.24
80537;BMP280;69867;47.074;15.404;2024-01-25T02:58:19;97854.34;;;12.21
80537;BMP280;69867;47.074;15.404;2024-01-25T03:00:44;97858.84;;;12.16
80537;BMP280;69867;47.074;15.404;2024-01-25T03:03:09;97874.56;;;12.11
80537;BMP280;69867;47.074;15.404;2024-01-25T03:05:35;97864.34;;;12.04
80537;BMP280;69867;47.074;15.404;2024-01-25T03:08:00;97869.59;;;12.36
80537;BMP280;69867;47.074;15.404;2024-01-25T03:10:26;97872.59;;;12.21
80537;BMP280;69867;47.074;15.404;2024-01-25T03:12:51;97880.22;;;12.29
80537;BMP280;69867;47.074;15.404;2024-01-25T03:15:17;97873.28;;;12.28
80537;BMP280;69867;47.074;15.404;2024-01-25T03:17:42;97859.09;;;12.39
80537;BMP280;69867;47.074;15.404;2024-01-25T03:20:08;97878.63;;;12.23
80537;BMP280;69867;47.074;15.404;2024-01-25T03:22:33;97862.56;;;12.06
80537;BMP280;69867;47.074;15.404;2024-01-25T03:24:58;97857.81;;;11.88
80537;BMP280;69867;47.074;15.404;2024-01-25T03:27:24;97880.72;;;12.09
80537;BMP280;69867;47.074;15.404;2024-01-25T03:29:49;97885.25;;;12.01
80537;BMP280;69867;47.074;15.404;2024-01-25T03:32:14;97860.13;;;11.98
80537;BMP280;69867;47.074;15.404;2024-01-25T03:34:40;97879.25;;;11.97
80537;BMP280;69867;47.074;15.404;2024-01-25T03:37:05;97874.75;;;12.04
80537;BMP280;69867;47.074;15.404;2024-01-25T03:39:30;97915.91;;;11.90
80537;BMP280;69867;47.074;15.404;2024-01-25T03:41:56;97892.19;;;12.02
80537;BMP280;69867;47.074;15.404;2024-01-25T03:44:21;97907.28;;;11.88
80537;BMP280;69867;47.074;15.404;2024-01-25T03:46:46;97871.34;;;12.02
80537;BMP280;69867;47.074;15.404;2024-01-25T03:49:12;97858.31;;;12.02
80537;BMP280;69867;47.074;15.404;2024-01-25T03:51:37;97855.16;;;11.89
80537;BMP280;69867;47.074;15.404;2024-01-25T03:54:02;97865.78;;;11.80
80537;BMP280;69867;47.074;15.404;2024-01-25T03:56:28;97873.69;;;11.75
80537;BMP280;69867;47.074;15.404;2024-01-25T03:58:53;97852.28;;;11.61
80537;BMP280;69867;47.074;15.404;2024-01-25T04:01:19;97876.88;;;11.48
80537;BMP280;69867;47.074;15.404;2024-01-25T04:03:44;97862.94;;;11.50
80537;BMP280;69867;47.074;15.404;2024-01-25T04:06:09;97867.28;;;11.50
80537;BMP280;69867;47.074;15.404;2024-01-25T04:08:35;97850.97;;;11.43
80537;BMP280;69867;47.074;15.404;2024-01-25T04:11:00;97893.13;;;11.59
80537;BMP280;69867;47.074;15.404;2024-01-25T04:13:25;97870.78;;;11.49
80537;BMP280;69867;47.074;15.404;2024-01-25T04:15:51;97885.03;;;11.33
80537;BMP280;69867;47.074;15.404;2024-01-25T04:18:16;97893.03;;;11.23
80537;BMP280;69867;47.074;15.404;2024-01-25T04:20:42;97887.84;;;11.22
80537;BMP280;69867;47.074;15.404;2024-01-25T04:23:08;97894.41;;;11.40
80537;BMP280;69867;47.074;15.404;2024-01-25T04:25:33;97886.06;;;11.24
80537;BMP280;69867;47.074;15.404;2024-01-25T04:27:59;97893.38;;;11.07
80537;BMP280;69867;47.074;15.404;2024-01-25T04:30:24;97891.63;;;11.07
80537;BMP280;69867;47.074;15.404;2024-01-25T04:32:49;97880.66;;;10.93
80537;BMP280;69867;47.074;15.404;2024-01-25T04:35:15;97902.03;;;11.07
80537;BMP280;69867;47.074;15.404;2024-01-25T04:37:40;97872.84;;;10.93
80537;BMP280;69867;47.074;15.404;2024-01-25T04:40:06;97880.97;;;10.78
80537;BMP280;69867;47.074;15.404;2024-01-25T04:42:32;97901.50;;;10.90
80537;BMP280;69867;47.074;15.404;2024-01-25T04:44:57;97883.19;;;10.96
80537;BMP280;69867;47.074;15.404;2024-01-25T04:47:22;97902.31;;;10.94
80537;BMP280;69867;47.074;15.404;2024-01-25T04:49:48;97916.19;;;10.93
80537;BMP280;69867;47.074;15.404;2024-01-25T04:52:13;97896.31;;;10.90
80537;BMP280;69867;47.074;15.404;2024-01-25T04:54:38;97924.06;;;10.89
80537;BMP280;69867;47.074;15.404;2024-01-25T04:57:04;97913.69;;;10.88
80537;BMP280;69867;47.074;15.404;2024-01-25T04:59:29;97905.25;;;10.77
80537;BMP280;69867;47.074;15.404;2024-01-25T05:01:54;97868.78;;;10.80
80537;BMP280;69867;47.074;15.404;2024-01-25T05:04:20;97895.94;;;10.65
80537;BMP280;69867;47.074;15.404;2024-01-25T05:06:45;97917.94;;;10.46
80537;BMP280;69867;47.074;15.404;2024-01-25T05:09:10;97937.94;;;10.41
80537;BMP280;69867;47.074;15.404;2024-01-25T05:11:39;97926.03;;;10.26
80537;BMP280;69867;47.074;15.404;2024-01-25T05:14:05;97919.31;;;10.11
80537;BMP280;69867;47.074;15.404;2024-01-25T05:16:30;97918.69;;;9.97
80537;BMP280;69867;47.074;15.404;2024-01-25T05:18:56;97931.09;;;9.78
80537;BMP280;69867;47.074;15.404;2024-01-25T05:21:21;97934.69;;;9.68
80537;BMP280;69867;47.074;15.404;2024-01-25T05:23:47;97936.56;;;9.57
80537;BMP280;69867;47.074;15.404;2024-01-25T05:26:12;97934.00;;;9.55
80537;BMP280;69867;47.074;15.404;2024-01-25T05:28:37;97956.44;;;9.59
80537;BMP280;69867;47.074;15.404;2024-01-25T05:31:03;97956.31;;;9.67
80537;BMP280;69867;47.074;15.404;2024-01-25T05:33:28;97957.16;;;9.69
80537;BMP280;69867;47.074;15.404;2024-01-25T05:35:54;97970.91;;;9.76
80537;BMP280;69867;47.074;15.404;2024-01-25T05:38:19;97957.06;;;9.77
80537;BMP280;69867;47.074;15.404;2024-01-25T05:40:44;97958.72;;;9.81
80537;BMP280;69867;47.074;15.404;2024-01-25T05:43:10;97967.63;;;9.63
80537;BMP280;69867;47.074;15.404;2024-01-25T05:45:35;97960.94;;;9.47
80537;BMP280;69867;47.074;15.404;2024-01-25T05:48:00;97960.72;;;9.62
80537;BMP280;69867;47.074;15.404;2024-01-25T05:50:26;97990.06;;;9.67
80537;BMP280;69867;47.074;15.404;2024-01-25T05:52:51;97999.66;;;9.60
80537;BMP280;69867;47.074;15.404;2024-01-25T05:55:16;97989.44;;;9.48
80537;BMP280;69867;47.074;15.404;2024-01-25T05:57:43;97998.75;;;9.63
80537;BMP280;69867;47.074;15.404;2024-01-25T06:00:09;97985.63;;;9.75
80537;BMP280;69867;47.074;15.404;2024-01-25T06:02:34;97984.16;;;9.56
80537;BMP280;69867;47.074;15.404;2024-01-25T06:04:59;97988.53;;;9.51
80537;BMP280;69867;47.074;15.404;2024-01-25T06:07:26;97984.22;;;9.51
80537;BMP280;69867;47.074;15.404;2024-01-25T06:09:52;97988.44;;;9.58
80537;BMP280;69867;47.074;15.404;2024-01-25T06:12:18;98015.41;;;9.47
80537;BMP280;69867;47.074;15.404;2024-01-25T06:14:43;98006.63;;;9.57
80537;BMP280;69867;47.074;15.404;2024-01-25T06:17:08;98008.28;;;9.62
80537;BMP280;69867;47.074;15.404;2024-01-25T06:19:34;98010.25;;;9.44
80537;BMP280;69867;47.074;15.404;2024-01-25T06:21:59;98010.34;;;9.36
80537;BMP280;69867;47.074;15.404;2024-01-25T06:24:24;97985.31;;;9.34
80537;BMP280;69867;47.074;15.404;2024-01-25T06:26:50;97985.44;;;9.23
80537;BMP280;69867;47.074;15.404;2024-01-25T06:29:15;97979.53;;;9.10
80537;BMP280;69867;47.074;15.404;2024-01-25T06:31:42;97985.66;;;9.00
80537;BMP280;69867;47.074;15.404;2024-01-25T06:34:07;98002.97;;;8.98
80537;BMP280;69867;47.074;15.404;2024-01-25T06:36:33;98005.97;;;9.41
80537;BMP280;69867;47.074;15.404;2024-01-25T06:38:58;98002.41;;;9.48
80537;BMP280;69867;47.074;15.404;2024-01-25T06:41:23;98005.97;;;9.41
80537;BMP280;69867;47.074;15.404;2024-01-25T06:43:49;98003.53;;;9.26
80537;BMP280;69867;47.074;15.404;2024-01-25T06:46:14;98031.34;;;9.09
80537;BMP280;69867;47.074;15.404;2024-01-25T06:48:39;98025.44;;;8.96
80537;BMP280;69867;47.074;15.404;2024-01-25T06:51:05;98034.94;;;8.95
80537;BMP280;69867;47.074;15.404;2024-01-25T06:53:30;98050.50;;;8.97
80537;BMP280;69867;47.074;15.404;2024-01-25T06:55:55;98046.22;;;8.93
80537;BMP280;69867;47.074;15.404;2024-01-25T06:58:20;98032.28;;;9.03
80537;BMP280;69867;47.074;15.404;2024-01-25T07:00:46;98032.34;;;8.97
80537;BMP280;69867;47.074;15.404;2024-01-25T07:03:11;98033.13;;;9.04
80537;BMP280;69867;47.074;15.404;2024-01-25T07:05:37;98040.00;;;9.09
80537;BMP280;69867;47.074;15.404;2024-01-25T07:08:02;98053.84;;;9.11
80537;BMP280;69867;47.074;15.404;2024-01-25T07:10:28;98051.13;;;9.23
80537;BMP280;69867;47.074;15.404;2024-01-25T07:12:53;98064.56;;;9.57
80537;BMP280;69867;47.074;15.404;2024-01-25T07:15:19;98056.69;;;9.67
80537;BMP280;69867;47.074;15.404;2024-01-25T07:17:44;98047.31;;;9.53
80537;BMP280;69867;47.074;15.404;2024-01-25T07:20:10;98044.03;;;9.38
80537;BMP280;69867;47.074;15.404;2024-01-25T07:22:35;98044.16;;;9.28
80537;BMP280;69867;47.074;15.404;2024-01-25T07:25:00;98058.91;;;9.23
80537;BMP280;69867;47.074;15.404;2024-01-25T07:27:26;98060.47;;;9.37
80537;BMP280;69867;47.074;15.404;2024-01-25T07:29:51;98051.81;;;9.38
80537;BMP280;69867;47.074;15.404;2024-01-25T07:32:18;98064.06;;;9.25
80537;BMP280;69867;47.074;15.404;2024-01-25T07:34:43;98070.09;;;9.28
80537;BMP280;69867;47.074;15.404;2024-01-25T07:37:08;98058.91;;;9.23
80537;BMP280;69867;47.074;15.404;2024-01-25T07:39:34;98048.53;;;9.22
80537;BMP280;69867;47.074;15.404;2024-01-25T07:41:59;98051.09;;;9.26
80537;BMP280;69867;47.074;15.404;2024-01-25T07:44:25;98061.53;;;9.20
80537;BMP280;69867;47.074;15.404;2024-01-25T07:46:50;98063.88;;;9.43
80537;BMP280;69867;47.074;15.404;2024-01-25T07:49:16;98069.19;;;9.31
80537;BMP280;69867;47.074;15.404;2024-01-25T07:51:41;98047.44;;;9.43
80537;BMP280;69867;47.074;15.404;2024-01-25T07:54:06;98040.69;;;9.29
80537;BMP280;69867;47.074;15.404;2024-01-25T07:56:32;98011.31;;;9.26
80537;BMP280;69867;47.074;15.404;2024-01-25T07:58:57;98014.84;;;9.20
80537;BMP280;69867;47.074;15.404;2024-01-25T08:01:22;98000.06;;;9.27
80537;BMP280;69867;47.074;15.404;2024-01-25T08:03:48;98008.59;;;9.38
80537;BMP280;69867;47.074;15.404;2024-01-25T08:06:13;98021.63;;;9.34
80537;BMP280;69867;47.074;15.404;2024-01-25T08:08:39;98033.56;;;9.47
80537;BMP280;69867;47.074;15.404;2024-01-25T08:11:04;98024.81;;;9.54
80537;BMP280;69867;47.074;15.404;2024-01-25T08:13:30;98034.16;;;9.69
80537;BMP280;69867;47.074;15.404;2024-01-25T08:15:56;98017.56;;;9.80
80537;BMP280;69867;47.074;15.404;2024-01-25T08:18:21;98031.47;;;9.75
80537;BMP280;69867;47.074;15.404;2024-01-25T08:20:47;98017.56;;;9.80
80537;BMP280;69867;47.074;15.404;2024-01-25T08:23:12;98039.16;;;9.82
80537;BMP280;69867;47.074;15.404;2024-01-25T08:25:38;98030.25;;;10.02
80537;BMP280;69867;47.074;15.404;2024-01-25T08:28:03;98016.53;;;9.93
80537;BMP280;69867;47.074;15.404;2024-01-25T08:30:28;98012.16;;;9.95
80537;BMP280;69867;47.074;15.404;2024-01-25T08:32:55;98004.25;;;10.05
80537;BMP280;69867;47.074;15.404;2024-01-25T08:35:20;98002.59;;;9.99
80537;BMP280;69867;47.074;15.404;2024-01-25T08:37:46;98024.06;;;10.12
80537;BMP280;69867;47.074;15.404;2024-01-25T08:40:12;97989.41;;;10.13
80537;BMP280;69867;47.074;15.404;2024-01-25T08:42:39;97985.09;;;10.12
80537;BMP280;69867;47.074;15.404;2024-01-25T08:45:05;97983.34;;;10.12
80537;BMP280;69867;47.074;15.404;2024-01-25T08:47:30;97969.69;;;10.00
80537;BMP280;69867;47.074;15.404;2024-01-25T08:49:56;97963.63;;;10.01
80537;BMP280;69867;47.074;15.404;2024-01-25T08:52:21;97972.06;;;10.15
80537;BMP280;69867;47.074;15.404;2024-01-25T08:54:46;97951.47;;;10.04
80537;BMP280;69867;47.074;15.404;2024-01-25T08:57:12;97951.47;;;10.03
80537;BMP280;69867;47.074;15.404;2024-01-25T08:59:37;97939.34;;;10.03
80537;BMP280;69867;47.074;15.404;2024-01-25T09:02:04;97937.44;;;10.14
80537;BMP280;69867;47.074;15.404;2024-01-25T09:04:29;97928.84;;;10.11
80537;BMP280;69867;47.074;15.404;2024-01-25T09:06:55;97928.91;;;10.08
80537;BMP280;69867;47.074;15.404;2024-01-25T09:09:20;97912.28;;;10.18
80537;BMP280;69867;47.074;15.404;2024-01-25T09:11:45;97926.97;;;10.22
80537;BMP280;69867;47.074;15.404;2024-01-25T09:14:11;97901.00;;;10.22
80537;BMP280;69867;47.074;15.404;2024-01-25T09:16:36;97916.47;;;10.28
80537;BMP280;69867;47.074;15.404;2024-01-25T09:19:01;97928.69;;;10.23
80537;BMP280;69867;47.074;15.404;2024-01-25T09:21:27;97936.38;;;10.29
80537;BMP280;69867;47.074;15.404;2024-01-25T09:23:52;97934.47;;;10.42
80537;BMP280;69867;47.074;15.404;2024-01-25T09:26:17;97942.66;;;10.68
80537;BMP280;69867;47.074;15.404;2024-01-25T09:28:43;97938.38;;;10.66
80537;BMP280;69867;47.074;15.404;2024-01-25T09:31:08;97955.72;;;10.64
80537;BMP280;69867;47.074;15.404;2024-01-25T09:33:34;97954.97;;;10.58
80537;BMP280;69867;47.074;15.404;2024-01-25T09:35:59;97939.41;;;10.55
80537;BMP280;69867;47.074;15.404;2024-01-25T09:38:24;97949.44;;;10.77
80537;BMP280;69867;47.074;15.404;2024-01-25T09:40:50;97949.59;;;10.68
80537;BMP280;69867;47.074;15.404;2024-01-25T09:43:15;97947.81;;;10.70
80537;BMP280;69867;47.074;15.404;2024-01-25T09:45:41;97960.06;;;10.63
80537;BMP280;69867;47.074;15.404;2024-01-25T09:48:07;97981.56;;;10.73
80537;BMP280;69867;47.074;15.404;2024-01-25T09:50:32;97969.22;;;10.84
80537;BMP280;69867;47.074;15.404;2024-01-25T09:52:59;97973.44;;;10.91
80537;BMP280;69867;47.074;15.404;2024-01-25T09:55:25;97956.94;;;10.92
80537;BMP280;69867;47.074;15.404;2024-01-25T09:57:53;97970.06;;;10.86
80537;BMP280;69867;47.074;15.404;2024-01-25T10:00:19;97965.66;;;10.89
80537;BMP280;69867;47.074;15.404;2024-01-25T10:02:45;97968.16;;;10.94
80537;BMP280;69867;47.074;15.404;2024-01-25T10:05:12;97984.38;;;11.08
80537;BMP280;69867;47.074;15.404;2024-01-25T10:07:45;97974.94;;;11.03
80537;BMP280;69867;47.074;15.404;2024-01-25T10:10:12;97965.50;;;10.99
80537;BMP280;69867;47.074;15.404;2024-01-25T10:12:39;97982.94;;;10.92
80537;BMP280;69867;47.074;15.404;2024-01-25T10:15:05;97975.16;;;10.90
80537;BMP280;69867;47.074;15.404;2024-01-25T10:17:31;97963.91;;;10.90
80537;BMP280;69867;47.074;15.404;2024-01-25T10:19:57;97957.28;;;11.18
80537;BMP280;69867;47.074;15.404;2024-01-25T10:22:22;97968.72;;;11.11
80537;BMP280;69867;47.074;15.404;2024-01-25T10:24:48;97954.88;;;11.09
80537;BMP280;69867;47.074;15.404;2024-01-25T10:27:14;97968.81;;;11.05
80537;BMP280;69867;47.074;15.404;2024-01-25T10:29:39;97961.91;;;11.04
80537;BMP280;69867;47.074;15.404;2024-01-25T10:32:06;97968.84;;;11.04
80537;BMP280;69867;47.074;15.404;2024-01-25T10:34:35;97960.06;;;11.09
80537;BMP280;69867;47.074;15.404;2024-01-25T10:37:03;97953.03;;;11.14
80537;BMP280;69867;47.074;15.404;2024-01-25T10:39:31;97952.41;;;11.45
80537;BMP280;69867;47.074;15.404;2024-01-25T10:41:58;97948.25;;;11.36
80537;BMP280;69867;47.074;15.404;2024-01-25T10:44:24;97954.44;;;11.31
80537;BMP280;69867;47.074;15.404;2024-01-25T10:46:49;97963.09;;;11.33
80537;BMP280;69867;47.074;15.404;2024-01-25T10:49:15;97941.47;;;11.29
80537;BMP280;69867;47.074;15.404;2024-01-25T10:51:41;97954.25;;;11.40
80537;BMP280;69867;47.074;15.404;2024-01-25T10:54:08;97951.19;;;11.61
80537;BMP280;69867;47.074;15.404;2024-01-25T10:56:38;97939.22;;;11.54
80537;BMP280;69867;47.074;15.404;2024-01-25T10:59:06;97940.28;;;11.44
80537;BMP280;69867;47.074;15.404;2024-01-25T11:01:33;97947.06;;;11.52
80537;BMP280;69867;47.074;15.404;2024-01-25T11:03:59;97919.66;;;11.76
80537;BMP280;69867;47.074;15.404;2024-01-25T11:06:26;97946.69;;;11.71
80537;BMP280;69867;47.074;15.404;2024-01-25T11:09:06;97927.59;;;11.69
80537;BMP280;69867;47.074;15.404;2024-01-25T11:11:32;97929.56;;;11.59
80537;BMP280;69867;47.074;15.404;2024-01-25T11:13:58;97942.41;;;11.67
80537;BMP280;69867;47.074;15.404;2024-01-25T11:16:31;97911.97;;;11.70
80537;BMP280;69867;47.074;15.404;2024-01-25T11:18:58;97916.06;;;11.83
80537;BMP280;69867;47.074;15.404;2024-01-25T11:21:46;97921.56;;;12.07
80537;BMP280;69867;47.074;15.404;2024-01-25T11:26:38;97930.13;;;12.12
80537;BMP280;69867;47.074;15.404;2024-01-25T11:29:04;97929.69;;;11.95
80537;BMP280;69867;47.074;15.404;2024-01-25T11:31:29;97938.47;;;11.91
80537;BMP280;69867;47.074;15.404;2024-01-25T11:33:58;97956.19;;;12.12
80537;BMP280;69867;47.074;15.404;2024-01-25T11:36:25;97916.97;;;12.18
80537;BMP280;69867;47.074;15.404;2024-01-25T11:38:50;97913.44;;;12.21
80537;BMP280;69867;47.074;15.404;2024-01-25T11:41:15;97925.06;;;12.06
80537;BMP280;69867;47.074;15.404;2024-01-25T11:43:41;97911.09;;;12.10
80537;BMP280;69867;47.074;15.404;2024-01-25T11:46:07;97922.22;;;12.16
80537;BMP280;69867;47.074;15.404;2024-01-25T11:48:32;97905.50;;;12.25
80537;BMP280;69867;47.074;15.404;2024-01-25T11:51:00;97900.22;;;12.28
80537;BMP280;69867;47.074;15.404;2024-01-25T11:53:27;97917.31;;;12.38
80537;BMP280;69867;47.074;15.404;2024-01-25T11:55:53;97927.53;;;12.47
80537;BMP280;69867;47.074;15.404;2024-01-25T11:58:20;97946.66;;;12.46
80537;BMP280;69867;47.074;15.404;2024-01-25T12:00:46;97934.69;;;12.39
80537;BMP280;69867;47.074;15.404;2024-01-25T12:03:11;97940.81;;;12.37
80537;BMP280;69867;47.074;15.404;2024-01-25T12:05:37;97936.47;;;12.37
80537;BMP280;69867;47.074;15.404;2024-01-25T12:08:12;97956.88;;;12.54
80537;BMP280;69867;47.074;15.404;2024-01-25T12:10:38;97913.66;;;12.45
80537;BMP280;69867;47.074;15.404;2024-01-25T12:13:03;97942.84;;;12.60
80537;BMP280;69867;47.074;15.404;2024-01-25T12:15:32;97935.50;;;12.41
80537;BMP280;69867;47.074;15.404;2024-01-25T12:17:58;97922.38;;;12.44
80537;BMP280;69867;47.074;15.404;2024-01-25T12:20:23;97927.91;;;12.32
80537;BMP280;69867;47.074;15.404;2024-01-25T12:22:49;97937.44;;;12.33
80537;BMP280;69867;47.074;15.404;2024-01-25T12:25:15;97935.75;;;12.31
80537;BMP280;69867;47.074;15.404;2024-01-25T12:27:40;97940.75;;;12.40
80537;BMP280;69867;47.074;15.404;2024-01-25T12:30:06;97931.44;;;12.30
80537;BMP280;69867;47.074;15.404;2024-01-25T12:32:31;97931.78;;;12.16
80537;BMP280;69867;47.074;15.404;2024-01-25T12:34:59;97932.84;;;12.07
80537;BMP280;69867;47.074;15.404;2024-01-25T12:37:24;97927.72;;;12.04
80537;BMP280;69867;47.074;15.404;2024-01-25T12:39:51;97936.44;;;12.03
80537;BMP280;69867;47.074;15.404;2024-01-25T12:42:18;97911.94;;;12.10
80537;BMP280;69867;47.074;15.404;2024-01-25T12:44:43;97943.81;;;12.22
80537;BMP280;69867;47.074;15.404;2024-01-25T12:47:09;97915.38;;;12.12
80537;BMP280;69867;47.074;15.404;2024-01-25T12:49:34;97918.00;;;12.11
80537;BMP280;69867;47.074;15.404;2024-01-25T12:52:00;97910.34;;;12.05
80537;BMP280;69867;47.074;15.404;2024-01-25T12:54:26;97913.72;;;12.08
80537;BMP280;69867;47.074;15.404;2024-01-25T12:56:52;97918.81;;;12.13
80537;BMP280;69867;47.074;15.404;2024-01-25T12:59:17;97936.06;;;12.18
80537;BMP280;69867;47.074;15.404;2024-01-25T13:01:43;97912.56;;;12.20
80537;BMP280;69867;47.074;15.404;2024-01-25T13:04:08;97884.09;;;12.12
80537;BMP280;69867;47.074;15.404;2024-01-25T13:06:33;97892.78;;;12.13
80537;BMP280;69867;47.074;15.404;2024-01-25T13:08:59;97900.66;;;12.10
80537;BMP280;69867;47.074;15.404;2024-01-25T13:11:24;97888.22;;;12.21
80537;BMP280;69867;47.074;15.404;2024-01-25T13:13:50;97902.97;;;12.22
80537;BMP280;69867;47.074;15.404;2024-01-25T13:16:15;97900.44;;;12.19
80537;BMP280;69867;47.074;15.404;2024-01-25T13:18:40;97880.28;;;12.26
80537;BMP280;69867;47.074;15.404;2024-01-25T13:21:06;97891.50;;;12.29
80537;BMP280;69867;47.074;15.404;2024-01-25T13:23:31;97881.41;;;12.15
80537;BMP280;69867;47.074;15.404;2024-01-25T13:25:56;97906.50;;;12.20
80537;BMP280;69867;47.074;15.404;2024-01-25T13:28:22;97901.56;;;12.43
80537;BMP280;69867;47.074;15.404;2024-01-25T13:30:47;97910.41;;;12.37
80537;BMP280;69867;47.074;15.404;2024-01-25T13:33:12;97914.84;;;12.34
80537;BMP280;69867;47.074;15.404;2024-01-25T13:35:38;97914.16;;;12.26
80537;BMP280;69867;47.074;15.404;2024-01-25T13:38:03;97948.00;;;12.27
80537;BMP280;69867;47.074;15.404;2024-01-25T13:40:29;97929.91;;;12.21
80537;BMP280;69867;47.074;15.404;2024-01-25T13:42:54;97905.78;;;12.13
80537;BMP280;69867;47.074;15.404;2024-01-25T13:45:19;97919.72;;;12.12
80537;BMP280;69867;47.074;15.404;2024-01-25T13:47:45;97924.50;;;12.29
80537;BMP280;69867;47.074;15.404;2024-01-25T13:50:10;97939.47;;;12.21
80537;BMP280;69867;47.074;15.404;2024-01-25T13:52:35;97930.03;;;12.50